Latest Weather Observations for Thredbo Top Station

IDN60801

Issued at 1:33 pm EDT Monday 18 October 2021 (issued every 10 minutes, with the page automatically refreshed every 10 minutes)

About weather observations | Map of weather stations | Latest weather observations for NSW | Other Formats
Station Details ID: 071032 Name: THREDBO AWS Lat: -36.49 Lon: 148.29 Height: 1957.0 m
Data from the previous 72 hours. | See also: Recent months at Thredbo Top Station
Date/Time
EDT
Temp
°C
App
Temp
°C
Dew
Point
°C
Rel
Hum
%
Delta-T
°C
Wind Press
QNH
hPa
Press
MSL
hPa
Rain since
9am
mm
Dir  Spd
km/h
Gust
km/h
Spd
kts
Gust
kts
18/01:30pm 4.1 -4.7 1.6 84 1.1 NW 37 50 20 27 1016.6 1014.7 0.0
18/01:13pm 4.5 -3.9 1.5 81 1.3 NW 35 56 19 30 1016.4 1014.4 0.0
18/01:00pm 4.5 -4.2 1.7 82 1.3 NW 37 50 20 27 1016.8 1014.9 0.0
18/12:30pm 5.3 -3.4 1.8 78 1.6 WNW 37 52 20 28 1017.0 1015.1 0.0
18/12:00pm 4.2 -4.3 1.2 81 1.3 NW 35 46 19 25 1017.1 1015.2 0.0
18/11:30am 3.8 -5.1 0.8 81 1.3 NW 37 50 20 27 1017.3 1015.4 0.0
18/11:00am 3.5 -5.8 0.9 83 1.1 NW 39 54 21 29 1017.2 1015.3 0.0
18/10:30am 3.1 -5.8 1.0 86 0.9 NW 37 48 20 26 1017.3 1015.4 0.0
18/10:00am 2.6 -5.5 1.0 89 0.7 WNW 33 43 18 23 1017.3 1015.4 0.0
18/09:30am 2.2 -6.0 0.4 88 0.8 WNW 33 48 18 26 1017.2 1015.3 0.0
18/09:00am 2.5 -5.5 0.4 86 0.9 WNW 32 43 17 23 1017.1 1015.2 0.0
18/08:30am 1.4 -6.9 -0.1 90 0.6 WNW 33 41 18 22 1016.7 1014.8 0.0
18/08:00am 1.4 -6.8 -0.8 85 0.9 W 32 50 17 27 1016.6 1014.7 0.0
18/07:31am 1.4 -7.7 -0.8 85 0.9 WNW 37 56 20 30 1016.0 1014.0 0.0
18/07:30am 1.4 -8.1 -0.7 86 0.9 WNW 39 56 21 30 1016.0 1014.0 0.0
18/07:00am 1.5 -8.4 -0.7 85 0.9 WNW 41 59 22 32 1015.5 1013.5 0.0
18/06:32am 1.2 -9.6 -0.4 89 0.7 WNW 46 65 25 35 1014.9 1012.9 0.0
18/06:30am 1.2 -9.6 -0.6 88 0.7 WNW 46 59 25 32 1015.0 1013.0 0.0
18/06:00am 0.9 -9.9 -0.5 90 0.6 WNW 46 61 25 33 1014.7 1012.7 0.0
18/05:37am 0.8 -10.5 -1.4 85 0.9 WNW 48 67 26 36 1014.4 1012.4 0.0
18/05:30am 0.7 -11.0 -1.4 86 0.9 WNW 50 63 27 34 1014.4 1012.4 0.0
18/05:00am 0.6 -9.3 -1.0 89 0.7 WNW 41 56 22 30 1014.5 1012.5 0.0
18/04:31am 0.5 -10.4 -0.9 90 0.6 WNW 46 65 25 35 1014.8 1012.8 0.0
18/04:30am 0.5 -10.7 -0.9 90 0.6 WNW 48 65 26 35 1014.7 1012.7 0.0
18/04:25am 0.6 -9.8 -0.7 91 0.5 WNW 44 63 24 34 1014.5 1012.5 0.0
18/04:00am 0.4 -10.5 -0.9 91 0.5 WNW 46 61 25 33 1014.5 1012.5 0.0
18/03:30am 0.5 -9.9 -0.5 93 0.4 WNW 44 57 24 31 1014.7 1012.7 0.0
18/03:00am 0.2 -9.7 -1.2 90 0.6 WNW 41 54 22 29 1015.3 1013.3 0.0
18/02:30am 0.3 -10.1 -2.1 84 1.0 NW 43 52 23 28 1015.0 1013.0 0.0
18/02:00am 0.3 -10.4 -2.6 81 1.1 NW 44 57 24 31 1015.0 1013.0 0.0
18/01:30am 0.4 -12.8 -3.0 78 1.3 NW 57 69 31 37 1014.8 1012.8 0.0
18/01:00am 0.5 -12.5 -1.4 87 0.8 NW 57 65 31 35 1014.8 1012.8 0.0
18/12:30am 0.5 -12.5 -2.9 78 1.3 NW 56 65 30 35 1015.1 1013.2 0.0
18/12:00am 2.0 -11.3 -9.5 42 3.9 NW 54 59 29 32 1014.9 1012.9 0.0
 
Date/Time
EDT
Temp
°C
App
Temp
°C
Dew
Point
°C
Rel
Hum
%
Delta-T
°C
Wind Press
QNH
hPa
Press
MSL
hPa
Rain since
9am
mm
Dir  Spd
km/h
Gust
km/h
Spd
kts
Gust
kts
17/11:30pm 2.6 -9.9 -9.3 41 4.1 NW 50 57 27 31 1015.0 1013.0 0.0
17/11:00pm 3.1 -10.0 -12.8 30 5.1 NW 52 59 28 32 1014.9 1012.9 0.0
17/10:30pm 3.0 -9.6 -10.2 37 4.5 NW 50 59 27 32 1014.9 1012.9 0.0
17/10:00pm 3.7 -8.7 -13.5 27 5.5 NW 48 56 26 30 1015.0 1013.0 0.0
17/09:30pm 3.0 -9.6 -6.1 51 3.5 NW 52 56 28 30 1015.0 1013.0 0.0
17/09:00pm 0.6 -10.2 -0.8 90 0.6 NW 46 50 25 27 1015.1 1013.2 0.0
17/08:30pm 1.6 -8.7 -1.1 82 1.1 NW 43 48 23 26 1015.5 1013.5 0.0
17/08:00pm 1.2 -9.2 -0.3 90 0.6 NW 44 48 24 26 1015.0 1013.0 0.0
17/07:30pm 1.5 -7.9 -0.3 88 0.7 NW 39 46 21 25 1014.8 1012.8 0.0
17/07:00pm 1.8 -7.3 -0.9 82 1.1 NW 37 44 20 24 1014.5 1012.5 0.0
17/06:30pm 2.1 -5.7 -0.6 82 1.1 NW 30 41 16 22 1014.8 1012.8 0.0
17/06:00pm 2.4 -4.2 -0.4 82 1.2 NW 24 35 13 19 1014.7 1012.7 0.0
17/05:30pm 3.2 -4.2 -0.6 76 1.6 WNW 28 41 15 22 1014.5 1012.5 0.0
17/05:00pm 3.4 -3.3 -0.8 74 1.8 NW 24 33 13 18 1014.8 1012.8 0.0
17/04:30pm 3.2 -4.0 -2.3 67 2.2 NW 26 33 14 18 1014.4 1012.4 0.0
17/04:00pm 3.0 -4.8 -4.0 60 2.7 NW 28 39 15 21 1014.3 1012.3 0.0
17/03:30pm 3.0 -5.0 -2.3 68 2.1 NW 30 37 16 20 1014.4 1012.4 0.0
17/03:00pm 3.0 -4.9 -1.4 73 1.8 NW 30 39 16 21 1014.4 1012.4 0.0
17/02:30pm 3.3 -4.3 -1.8 69 2.1 NW 28 33 15 18 1014.5 1012.5 0.0
17/02:00pm 3.5 -4.7 -3.7 59 2.8 NW 30 37 16 20 1014.4 1012.4 0.0
17/01:30pm 3.2 -5.3 -3.4 62 2.6 NW 32 39 17 21 1014.3 1012.3 0.0
17/01:00pm 3.2 -3.8 -3.1 63 2.5 NW 24 32 13 17 1014.4 1012.4 0.0
17/12:30pm 3.7 -4.0 -6.3 48 3.7 WNW 26 33 14 18 1014.7 1012.7 0.0
17/12:00pm 3.6 -3.6 -5.6 51 3.4 WNW 24 32 13 17 1014.7 1012.7 0.0
17/11:30am 3.0 -3.7 -8.3 43 4.1 W 20 26 11 14 1014.8 1012.8 0.0
17/11:00am 3.1 -3.7 -8.8 41 4.2 W 20 26 11 14 1014.7 1012.7 0.0
17/10:30am 2.5 -4.7 -9.7 40 4.2 W 22 30 12 16 1014.5 1012.5 0.0
17/10:00am 2.3 -4.6 -11.2 36 4.4 W 20 28 11 15 1014.5 1012.5 0.0
17/09:30am 2.2 -4.8 -12.0 34 4.5 WSW 20 32 11 17 1014.3 1012.3 0.0
17/09:00am 1.6 -5.7 -11.2 38 4.1 WSW 22 32 12 17 - - 5.4
17/08:30am 1.0 -5.9 -10.1 43 3.6 WSW 20 32 11 17 - - 5.4
17/08:00am 0.9 -6.5 -11.8 38 4.0 SW 22 28 12 15 - - 5.4
17/07:30am 0.0 -6.7 -11.1 43 3.4 SW 19 30 10 16 - - 5.4
17/07:00am -0.1 -8.4 -9.5 49 3.0 SW 28 37 15 20 - - 5.4
17/06:30am -0.2 -8.1 -8.4 54 2.7 WSW 26 44 14 24 - - 5.4
17/06:00am -1.3 -9.2 -8.5 58 2.3 WSW 26 41 14 22 - - 5.4
17/05:30am -1.8 -10.0 -7.3 66 1.8 WSW 28 41 15 22 - - 5.4
17/05:08am -0.9 -9.5 -7.9 59 2.3 WSW 30 48 16 26 - - 5.4
17/05:00am -0.4 -8.3 -8.5 54 2.7 WSW 26 39 14 21 - - 5.4
17/04:30am -1.0 -8.7 -6.9 64 2.0 WSW 26 41 14 22 - - 5.4
17/04:00am -1.9 -9.6 -6.6 70 1.5 W 26 37 14 20 - - 5.4
17/03:30am -1.5 -10.0 -7.0 66 1.8 WSW 30 43 16 23 - - 5.4
17/03:00am -1.7 -10.7 -5.7 74 1.3 W 33 46 18 25 - - 5.4
17/02:30am -1.4 -10.2 -6.1 70 1.6 WSW 32 43 17 23 - - 5.4
17/02:00am -1.7 -10.2 -3.4 88 0.5 WSW 32 43 17 23 - - 5.4
17/01:30am -1.3 -9.9 -3.8 83 0.9 WSW 32 41 17 22 - - 5.4
17/01:00am -1.5 -10.0 -3.1 89 0.5 W 32 43 17 23 - - 5.4
17/12:30am -1.6 -9.6 -2.4 94 0.2 WSW 30 39 16 21 - - 5.4
17/12:00am -1.2 -9.5 -2.0 94 0.2 WSW 32 43 17 23 - - 5.4
 
Date/Time
EDT
Temp
°C
App
Temp
°C
Dew
Point
°C
Rel
Hum
%
Delta-T
°C
Wind Press
QNH
hPa
Press
MSL
hPa
Rain since
9am
mm
Dir  Spd
km/h
Gust
km/h
Spd
kts
Gust
kts
16/11:30pm -0.9 -9.8 -1.9 93 0.3 W 35 48 19 26 - - 5.4
16/11:00pm -0.7 -10.3 -1.5 94 0.3 W 39 48 21 26 - - 5.4
16/10:30pm -0.5 -9.3 -1.3 94 0.3 W 35 50 19 27 - - 5.4
16/10:00pm -0.1 -8.6 -1.5 90 0.6 W 33 44 18 24 - - 5.4
16/09:30pm 0.1 -8.3 -1.0 92 0.4 W 33 44 18 24 - - 5.4
16/09:00pm 0.4 -8.3 -0.3 95 0.3 W 35 46 19 25 - - 5.4
16/08:30pm 0.6 -8.5 -0.3 94 0.4 W 37 50 20 27 - - 5.4
16/08:00pm 0.9 -8.9 -0.1 93 0.4 W 41 52 22 28 - - 5.4
16/07:31pm 1.0 -7.3 0.0 93 0.4 W 33 52 18 28 - - 5.4
16/07:30pm 1.0 -7.1 0.0 93 0.4 W 32 43 17 23 - - 5.4
16/07:00pm 1.3 -6.9 0.1 92 0.5 WSW 33 43 18 23 - - 5.4
16/06:30pm 1.4 -6.8 0.4 93 0.4 WSW 33 48 18 26 - - 5.4
16/06:00pm 1.3 -6.3 0.3 93 0.4 WSW 30 44 16 24 - - 5.4
16/05:30pm 1.1 -5.8 0.4 95 0.3 WSW 26 37 14 20 - - 5.4
16/05:00pm 1.3 -4.9 -0.2 90 0.6 WSW 22 32 12 17 - - 5.4
16/04:30pm 1.1 -5.5 -0.5 89 0.7 WSW 24 39 13 21 - - 5.4
16/04:00pm 1.2 -5.3 0.0 92 0.5 WSW 24 37 13 20 - - 5.4
16/03:30pm 0.6 -6.1 -1.0 89 0.7 WSW 24 32 13 17 - - 5.4
16/03:00pm 0.8 -7.3 -0.6 90 0.6 SW 32 44 17 24 - - 5.4
16/02:30pm 0.6 -6.7 -0.1 95 0.3 SW 28 37 15 20 - - 5.0
16/02:00pm 0.5 -7.8 -1.4 87 0.8 SW 32 44 17 24 - - 5.0
16/01:30pm 0.4 -7.4 -0.7 92 0.5 SW 30 44 16 24 - - 4.6
16/01:10pm 0.2 -7.9 -0.2 97 0.2 SW 32 50 17 27 - - 4.4
16/01:00pm 0.2 -8.1 -0.4 96 0.3 SW 33 48 18 26 - - 4.4
16/12:30pm 0.2 -8.5 -0.4 96 0.3 SW 35 56 19 30 - - 2.4
16/12:04pm 0.3 -8.4 -0.3 96 0.2 WSW 35 54 19 29 - - 2.4
16/12:00pm 0.1 -9.0 -0.5 96 0.3 WSW 37 54 20 29 - - 2.4
16/11:30am 0.3 -8.4 -0.5 94 0.3 SW 35 56 19 30 - - 1.4
16/11:24am 0.2 -8.5 -0.2 97 0.2 SW 35 56 19 30 - - 1.2
16/11:19am 0.0 -8.7 -0.6 96 0.2 WSW 35 59 19 32 - - 1.2
16/11:01am -0.1 -9.2 -0.5 97 0.2 WSW 37 56 20 30 - - 1.2
16/11:00am -0.1 -9.2 -0.5 97 0.2 WSW 37 54 20 29 - - 1.2
16/10:30am 0.0 -9.1 -0.6 96 0.2 W 37 59 20 32 - - 1.0
16/10:00am 0.0 -9.9 -0.7 95 0.3 WSW 41 59 22 32 - - 0.6
16/09:48am -0.1 -9.6 -0.7 96 0.2 WSW 39 57 21 31 - - 0.6
16/09:30am -0.2 -9.3 -0.8 96 0.2 WSW 37 52 20 28 - - 0.4
16/09:02am -0.3 -10.6 -1.0 95 0.3 W 43 61 23 33 - - 0.0
16/09:00am -0.2 -10.7 -0.9 95 0.3 W 44 61 24 33 - - 9.2
16/08:30am -0.2 -10.7 -0.9 95 0.3 W 44 63 24 34 - - 8.8
16/08:08am -0.2 -9.7 -0.8 96 0.2 W 39 57 21 31 - - 8.6
16/08:00am -0.7 -10.2 -1.1 97 0.1 WNW 39 48 21 26 - - 8.4
16/07:30am -0.7 -9.1 -1.3 96 0.2 WNW 33 43 18 23 - - 8.0
16/07:00am -0.9 -9.7 -1.3 97 0.1 WNW 35 43 19 23 - - 7.6
16/06:30am -0.9 -10.1 -1.3 97 0.1 NW 37 46 20 25 - - 7.2
16/06:26am -0.9 -10.1 -1.3 97 0.1 NW 37 46 20 25 - - 7.2
16/06:00am -1.0 -9.2 -1.3 98 0.1 WNW 32 41 17 22 - - 7.2
16/05:30am -1.1 -10.3 -1.4 98 0.1 WNW 37 44 20 24 - - 6.8
16/05:07am -1.1 -11.1 -1.5 97 0.1 WNW 41 61 22 33 - - 6.6
16/05:00am -1.1 -11.1 -1.5 97 0.1 WNW 41 54 22 29 - - 6.6
16/04:30am -1.1 -10.7 -1.5 97 0.1 WNW 39 54 21 29 - - 6.4
16/04:00am -1.2 -10.8 -1.6 97 0.1 WNW 39 52 21 28 - - 6.2
16/03:30am -1.1 -11.1 -1.5 97 0.1 WNW 41 54 22 29 - - 6.0
16/03:00am -1.4 -12.0 -1.8 97 0.1 NW 44 59 24 32 - - 5.8
16/02:30am -1.4 -11.4 -1.8 97 0.1 WNW 41 57 22 31 - - 5.6
16/02:00am -1.4 -11.4 -1.8 97 0.1 NW 41 57 22 31 - - 5.2
16/01:32am -1.4 -12.0 -1.7 98 0.0 NW 44 63 24 34 - - 5.0
16/01:30am -1.4 -11.8 -1.7 98 0.0 WNW 43 57 23 31 - - 5.0
16/01:11am -1.1 -12.0 -1.4 98 0.1 WNW 46 65 25 35 - - 4.8
16/01:00am -1.2 -12.9 -1.5 98 0.1 WNW 50 67 27 36 - - 4.8
16/12:30am -1.1 -13.5 -1.4 98 0.1 WNW 54 69 29 37 - - 4.6
16/12:21am -1.1 -13.5 -1.4 98 0.1 WNW 54 72 29 39 - - 4.6
16/12:00am -0.9 -13.7 -1.0 99 0.0 WNW 56 70 30 38 - - 4.4
 
Date/Time
EDT
Temp
°C
App
Temp
°C
Dew
Point
°C
Rel
Hum
%
Delta-T
°C
Wind Press
QNH
hPa
Press
MSL
hPa
Rain since
9am
mm
Dir  Spd
km/h
Gust
km/h
Spd
kts
Gust
kts
15/11:30pm -0.6 -13.3 -0.7 99 0.0 WNW 56 70 30 38 - - 4.2
15/11:00pm -0.6 -12.2 -0.7 99 0.0 WNW 50 72 27 39 - - 4.0
15/10:53pm -0.6 -10.1 -0.7 99 0.0 WNW 39 65 21 35 - - 3.8
15/10:30pm -0.3 -10.1 -0.4 99 0.0 WNW 41 57 22 31 - - 3.6
15/10:16pm -0.6 -12.2 -0.7 99 0.0 WNW 50 69 27 37 - - 3.4
15/10:00pm -0.5 -11.3 -0.6 99 0.0 WNW 46 61 25 33 - - 3.2
15/09:30pm -0.5 -11.3 -0.6 99 0.0 WNW 46 65 25 35 - - 3.0
15/09:02pm -1.0 -10.9 -1.1 99 0.0 WNW 41 63 22 34 - - 2.8
15/09:00pm -1.0 -10.5 -1.1 99 0.0 W 39 54 21 29 - - 2.8
15/08:30pm -0.8 -10.3 -0.9 99 0.0 WNW 39 59 21 32 - - 2.8
15/08:00pm -1.0 -10.2 -1.3 98 0.1 W 37 57 20 31 - - 2.8
15/07:38pm -0.8 -8.6 -0.9 99 0.0 W 30 50 16 27 - - 2.8
15/07:30pm -0.5 -8.6 -0.6 99 0.0 W 32 43 17 23 - - 2.8
15/07:00pm -0.2 -7.5 -0.3 99 0.0 WNW 28 48 15 26 - - 2.2
15/06:59pm -0.2 -7.5 -0.3 99 0.0 WNW 28 48 15 26 - - 2.2
15/06:30pm 0.0 -7.3 -0.1 99 0.0 W 28 37 15 20 - - 2.0
15/06:00pm -0.1 -7.1 -0.5 97 0.2 W 26 39 14 21 - - 1.8
15/05:45pm -0.3 -8.4 -0.6 98 0.1 WNW 32 50 17 27 - - 1.2
15/05:30pm -0.4 -8.2 -0.5 99 0.0 NW 30 39 16 21 - - 1.0
15/05:06pm -0.4 -7.8 -0.5 99 0.0 WNW 28 46 15 25 - - 1.0
15/05:00pm -0.2 -7.5 -0.3 99 0.0 WNW 28 44 15 24 - - 0.8
15/04:30pm -0.3 -9.8 -0.9 96 0.2 NW 39 52 21 28 - - 0.6
15/04:00pm -0.2 -8.6 -0.8 96 0.2 NW 33 43 18 23 - - 0.6
15/03:50pm -0.1 -8.8 -0.4 98 0.1 NW 35 54 19 29 - - 0.6
15/03:30pm -0.2 -9.3 -0.5 98 0.1 NW 37 50 20 27 - - 0.2
15/03:15pm -0.1 -8.8 -0.2 99 0.0 NW 35 56 19 30 - - 0.2
15/03:00pm 0.0 -8.7 -0.3 98 0.1 WNW 35 50 19 27 - - 0.2
15/02:30pm -0.1 -9.2 -0.4 98 0.1 NW 37 50 20 27 - - 0.2
15/02:12pm 0.5 -7.2 -0.2 95 0.3 WNW 30 50 16 27 - - 0.2
15/02:00pm 0.4 -8.3 -0.2 96 0.2 WNW 35 46 19 25 - - 0.2

Other formats

Comma delimited format used in spreadsheet applications
http://www.bom.gov.au/fwo/IDN60801/IDN60801.95909.axf

JavaScript Object Notation format (JSON) in row-major order
http://www.bom.gov.au/fwo/IDN60801/IDN60801.95909.json

Data quality

Most of these data are generated automatically and are frequently updated. Quality checks on data are not normally performed. It is possible for incorrect values to appear. Refer to information at About Latest Weather Observations and please check the disclaimer before using these data.